Crab Orchard, KY

12:13 PM EST on November 22, 2014 (GMT -0500)
K. Bracketts Weather Station 39 N | Change Station
CLOSE
Current Station
Personal Weather Station
Location: Crab Orchard, KY
Elevation: 952 ft
Nearby Weather Stations

Elev 952 ft 37.47 °N, 84.51 °W | Updated 2 seconds ago

Overcast
Overcast
60.1 °F
Feels Like 60.1 °F
N
2.2
Wind Variable Wind from West
Gusts 9.2 mph

Today
High -- | Low -- °F
--% Chance of Precip.
Yesterday
High -- | Low -- °F
Precip. -- in
7:24 AM 5:23 PM
New Moon, 0% visible
Pressure 30.30 in
Visibility 10.0 miles
Clouds Mostly Cloudy 8500 ft
Overcast 11000 ft
Dew Point 40 °F
Humidity 48%
Rainfall 0.00 in
Snow Depth Not available.
UV 1 out of 12
Pollen .10 out of 12
Air Quality Not available.
Flu Activity Not available.
METAR KI39 221655Z AUTO 21013G18KT 10SM BKN085 OVC110 13/M03 A3030 RMK AO2

More Conditions Fewer Conditions

Pressure 30.30 in
Visibility 10.0 miles
Clouds Mostly Cloudy 8500 ft
Overcast 11000 ft
Dew Point 40 °F
Humidity 48%
Rainfall 0.00 in
Snow Depth Not available.
UV 1 out of 12
Pollen .10 out of 12
Air Quality Not available.
Flu Activity Not available.
METAR KI39 221655Z AUTO 21013G18KT 10SM BKN085 OVC110 13/M03 A3030 RMK AO2

More Conditions Fewer Conditions

10-Day Weather Forecast

Almanac

Astronomy

Nov. 22, 2014 Rise Set
Actual Time
Civil Twilight
Nautical Twilight
Astronomical Twilight
Moon
Length of Visible Light
Length of Day
Tomorrow will be .
, % of the Moon is Illuminated

Today's Extremes

State Highs State Lows

Community

WunderPhotos

Upload Photos

1,772,861 photos uploaded!

WunderBlogs® & News

Nearby

Air Quality

  Air Quality AQ Index Pollutant
Not available.

Snow Depth

Station Depth Elevation

Earthquake Activity

City Distance Mag. Time & Date
Minimum magnitude displayed is 2.5.

Coastal Water Temperatures

Place Temperature

Nearby Weather Stations